createdAt,value
2017-01-18T00:01:43.263Z,-6.94
2017-01-18T00:03:55.719Z,-6.97
2017-01-18T00:06:08.744Z,-7.01
2017-01-18T00:08:15.970Z,-7.06
2017-01-18T00:10:29.084Z,-7.1
2017-01-18T00:12:41.357Z,-7.14
2017-01-18T00:14:53.874Z,-7.17
2017-01-18T00:17:06.223Z,-7.19
2017-01-18T00:19:13.745Z,-7.18
2017-01-18T00:21:21.943Z,-7.12
2017-01-18T00:23:43.897Z,-7.02
2017-01-18T00:25:56.254Z,-6.94
2017-01-18T00:28:10.473Z,-6.89
2017-01-18T00:30:22.660Z,-6.86
2017-01-18T00:32:36.306Z,-6.83
2017-01-18T00:34:45.767Z,-6.77
2017-01-18T00:36:58.086Z,-6.71
2017-01-18T00:39:10.371Z,-6.64
2017-01-18T00:41:22.952Z,-6.57
2017-01-18T00:43:34.573Z,-6.54
2017-01-18T00:45:47.251Z,-6.55
2017-01-18T00:47:59.891Z,-6.56
2017-01-18T00:50:15.129Z,-6.56
2017-01-18T00:52:28.503Z,-6.54
2017-01-18T00:54:41.558Z,-6.51
2017-01-18T00:56:55.561Z,-6.45
2017-01-18T00:59:07.910Z,-6.39
2017-01-18T01:01:20.182Z,-6.31
2017-01-18T01:03:33.940Z,-6.25
2017-01-18T01:05:46.484Z,-6.16
2017-01-18T01:08:00.849Z,-6.11
2017-01-18T01:10:16.476Z,-6.05
2017-01-18T01:12:28.835Z,-6.02
2017-01-18T01:14:43.692Z,-5.98
2017-01-18T01:16:58.222Z,-5.93
2017-01-18T01:19:05.481Z,-5.87
2017-01-18T01:21:18.012Z,-5.8
2017-01-18T01:23:30.757Z,-5.74
2017-01-18T01:25:42.988Z,-5.66
2017-01-18T01:27:57.075Z,-5.59
2017-01-18T01:30:09.528Z,-5.51
2017-01-18T01:32:16.956Z,-5.45
2017-01-18T01:34:31.800Z,-5.4
2017-01-18T01:36:44.038Z,-5.35
2017-01-18T01:38:57.030Z,-5.31
2017-01-18T01:41:09.216Z,-5.28
2017-01-18T01:43:18.084Z,-5.25
2017-01-18T01:45:30.382Z,-5.22
2017-01-18T01:47:42.624Z,-5.18
2017-01-18T01:49:54.984Z,-5.13
2017-01-18T01:52:07.621Z,-5.08
2017-01-18T01:54:21.003Z,-5.03
2017-01-18T01:56:31.767Z,-4.99
2017-01-18T01:58:43.959Z,-4.94
2017-01-18T02:00:56.679Z,-4.89
2017-01-18T02:03:09.271Z,-4.83
2017-01-18T02:05:21.471Z,-4.79
2017-01-18T02:07:34.271Z,-4.75
2017-01-18T02:09:47.028Z,-4.7
2017-01-18T02:12:00.612Z,-4.65
2017-01-18T02:14:11.316Z,-4.6
2017-01-18T02:16:24.680Z,-4.56
2017-01-18T02:18:31.985Z,-4.52
2017-01-18T02:20:44.362Z,-4.46
2017-01-18T02:22:56.785Z,-4.41
2017-01-18T02:25:09.843Z,-4.35
2017-01-18T02:27:12.294Z,-4.32
2017-01-18T02:29:25.930Z,-4.27
2017-01-18T02:31:38.852Z,-4.2
2017-01-18T02:33:47.331Z,-4.15
2017-01-18T02:36:00.129Z,-4.11
2017-01-18T02:38:12.790Z,-4.06
2017-01-18T02:40:25.551Z,-4.02
2017-01-18T02:42:38.426Z,-3.97
2017-01-18T02:44:45.758Z,-3.94
2017-01-18T02:47:01.617Z,-3.89
2017-01-18T02:49:09.183Z,-3.85
2017-01-18T02:51:22.171Z,-3.82
2017-01-18T02:53:36.240Z,-3.76
2017-01-18T02:55:49.524Z,-3.72
2017-01-18T02:58:02.997Z,-3.69
2017-01-18T03:00:17.905Z,-3.65
2017-01-18T03:02:33.062Z,-3.61
2017-01-18T03:04:41.121Z,-3.57
2017-01-18T03:06:54.322Z,-3.52
2017-01-18T03:09:07.191Z,-3.49
2017-01-18T03:11:19.649Z,-3.45
2017-01-18T03:13:27.029Z,-3.41
2017-01-18T03:15:39.659Z,-3.37
2017-01-18T03:17:52.160Z,-3.34
2017-01-18T03:20:04.546Z,-3.33
2017-01-18T03:22:16.799Z,-3.31
2017-01-18T03:24:29.186Z,-3.29
2017-01-18T03:26:41.561Z,-3.27
2017-01-18T03:28:49.004Z,-3.26
2017-01-18T03:31:01.350Z,-3.25
2017-01-18T03:33:13.599Z,-3.24
2017-01-18T03:35:26.034Z,-3.23
2017-01-18T03:37:39.438Z,-3.24
2017-01-18T03:39:51.931Z,-3.23
2017-01-18T03:42:04.491Z,-3.23
2017-01-18T03:44:17.537Z,-3.24
2017-01-18T03:46:30.051Z,-3.26
2017-01-18T03:48:43.069Z,-3.28
2017-01-18T03:50:50.490Z,-3.29
2017-01-18T03:53:02.879Z,-3.27
2017-01-18T03:55:15.676Z,-3.25
2017-01-18T03:57:27.948Z,-3.23
2017-01-18T03:59:40.364Z,-3.2
2017-01-18T04:01:47.654Z,-3.17
2017-01-18T04:04:00.202Z,-3.13
2017-01-18T04:06:07.511Z,-3.09
2017-01-18T04:08:20.106Z,-3.06
2017-01-18T04:10:33.046Z,-3.02
2017-01-18T04:12:40.465Z,-3
2017-01-18T04:14:52.885Z,-2.97
2017-01-18T04:17:05.913Z,-2.92
2017-01-18T04:19:21.433Z,-2.9
2017-01-18T04:21:33.745Z,-2.86
2017-01-18T04:23:46.389Z,-2.83
2017-01-18T04:25:59.552Z,-2.81
2017-01-18T04:28:12.173Z,-2.78
2017-01-18T04:30:24.557Z,-2.76
2017-01-18T04:32:37.081Z,-2.75
2017-01-18T04:34:44.660Z,-2.75
2017-01-18T04:36:57.092Z,-2.77
2017-01-18T04:39:09.453Z,-2.77
2017-01-18T04:41:16.987Z,-2.78
2017-01-18T04:43:29.636Z,-2.79
2017-01-18T04:45:41.993Z,-2.78
2017-01-18T04:47:54.543Z,-2.78
2017-01-18T04:50:06.812Z,-2.76
2017-01-18T04:52:19.831Z,-2.74
2017-01-18T04:54:32.557Z,-2.73
2017-01-18T04:56:44.841Z,-2.71
2017-01-18T04:58:57.084Z,-2.67
2017-01-18T05:01:09.334Z,-2.66
2017-01-18T05:03:21.607Z,-2.64
2017-01-18T05:05:29.065Z,-2.63
2017-01-18T05:07:41.484Z,-2.61
2017-01-18T05:09:55.717Z,-2.6
2017-01-18T05:12:09.349Z,-2.59
2017-01-18T05:14:22.562Z,-2.57
2017-01-18T05:16:39.822Z,-2.54
2017-01-18T05:18:55.003Z,-2.52
2017-01-18T05:21:10.038Z,-2.5
2017-01-18T05:23:25.817Z,-2.48
2017-01-18T05:25:34.589Z,-2.48
2017-01-18T05:27:45.101Z,-2.46
2017-01-18T05:29:58.394Z,-2.45
2017-01-18T05:32:07.514Z,-2.44
2017-01-18T05:34:22.661Z,-2.44
2017-01-18T05:36:36.641Z,-2.42
2017-01-18T05:38:53.404Z,-2.42
2017-01-18T05:41:06.815Z,-2.42
2017-01-18T05:43:22.077Z,-2.41
2017-01-18T05:45:36.472Z,-2.43
2017-01-18T05:47:53.139Z,-2.43
2017-01-18T05:50:07.618Z,-2.42
2017-01-18T05:52:20.548Z,-2.41
2017-01-18T05:54:34.374Z,-2.4
2017-01-18T05:56:46.977Z,-2.38
2017-01-18T05:58:59.238Z,-2.36
2017-01-18T06:01:07.271Z,-2.34
2017-01-18T06:03:21.633Z,-2.33
2017-01-18T06:05:33.826Z,-2.32
2017-01-18T06:07:49.997Z,-2.3
2017-01-18T06:09:58.301Z,-2.28
2017-01-18T06:12:13.173Z,-2.26
2017-01-18T06:14:28.954Z,-2.24
2017-01-18T06:16:45.100Z,-2.21
2017-01-18T06:18:58.412Z,-2.2
2017-01-18T06:21:11.015Z,-2.17
2017-01-18T06:23:25.537Z,-2.15
2017-01-18T06:25:46.067Z,-2.13
2017-01-18T06:28:15.197Z,-2.1
2017-01-18T06:30:36.091Z,-2.07
2017-01-18T06:32:43.854Z,-2.05
2017-01-18T06:34:54.614Z,-2.02
2017-01-18T06:37:08.746Z,-2.02
2017-01-18T06:39:16.149Z,-2
2017-01-18T06:41:29.366Z,-1.98
2017-01-18T06:43:41.925Z,-1.96
2017-01-18T06:45:54.299Z,-1.93
2017-01-18T06:48:07.906Z,-1.91
2017-01-18T06:50:21.787Z,-1.89
2017-01-18T06:52:34.740Z,-1.86
2017-01-18T06:54:49.398Z,-1.83
2017-01-18T06:57:02.242Z,-1.81
2017-01-18T06:59:15.572Z,-1.8
2017-01-18T07:01:28.662Z,-1.79
2017-01-18T07:03:41.200Z,-1.77
2017-01-18T07:05:54.904Z,-1.77
2017-01-18T07:08:08.691Z,-1.75
2017-01-18T07:10:21.196Z,-1.74
2017-01-18T07:12:30.187Z,-1.72
2017-01-18T07:14:43.281Z,-1.7
2017-01-18T07:16:55.722Z,-1.67
2017-01-18T07:19:04.219Z,-1.64
2017-01-18T07:21:19.066Z,-1.61
2017-01-18T07:23:28.237Z,-1.57
2017-01-18T07:25:41.857Z,-1.53
2017-01-18T07:27:55.083Z,-1.47
2017-01-18T07:30:08.187Z,-1.44
2017-01-18T07:32:20.917Z,-1.39
2017-01-18T07:34:34.691Z,-1.35
2017-01-18T07:36:47.862Z,-1.31
2017-01-18T07:39:00.586Z,-1.26
2017-01-18T07:41:13.062Z,-1.23
2017-01-18T07:43:25.600Z,-1.19
2017-01-18T07:45:38.478Z,-1.16
2017-01-18T07:47:54.261Z,-1.14
2017-01-18T07:50:09.961Z,-1.13
2017-01-18T07:52:23.537Z,-1.1
2017-01-18T07:54:37.111Z,-1.07
2017-01-18T07:56:53.476Z,-1.04
2017-01-18T07:59:08.697Z,-0.99
2017-01-18T08:01:25.620Z,-0.95
2017-01-18T08:03:33.114Z,-0.9
2017-01-18T08:05:47.111Z,-0.87
2017-01-18T08:07:59.335Z,-0.83
2017-01-18T08:10:09.335Z,-0.77
2017-01-18T08:12:24.693Z,-0.71
2017-01-18T08:14:43.724Z,-0.67
2017-01-18T08:16:57.684Z,-0.62
2017-01-18T08:19:11.668Z,-0.56
2017-01-18T08:21:15.789Z,-0.5
2017-01-18T08:23:29.872Z,-0.38
2017-01-18T08:25:42.131Z,-0.31
2017-01-18T08:27:52.783Z,-0.16
2017-01-18T08:30:00.002Z,-0.07
2017-01-18T08:32:07.171Z,0
2017-01-18T08:34:20.837Z,0.09
2017-01-18T08:36:33.705Z,0.18
2017-01-18T08:38:42.173Z,0.3
2017-01-18T08:40:54.533Z,0.51
2017-01-18T08:43:06.782Z,0.72
2017-01-18T08:45:14.457Z,0.8
2017-01-18T08:47:27.582Z,0.81
2017-01-18T08:49:40.540Z,0.91
2017-01-18T08:51:53.949Z,0.84
2017-01-18T08:54:06.562Z,0.91
2017-01-18T08:56:22.021Z,0.84
2017-01-18T08:58:36.735Z,0.94
2017-01-18T09:00:49.070Z,1.01
2017-01-18T09:03:02.771Z,1.06
2017-01-18T09:05:15.028Z,1.06
2017-01-18T09:07:27.280Z,1.21
2017-01-18T09:09:41.368Z,1.22
2017-01-18T09:11:55.871Z,1.38
2017-01-18T09:14:08.158Z,1.38
2017-01-18T09:16:20.492Z,1.42
2017-01-18T09:18:36.477Z,1.39
2017-01-18T09:20:49.432Z,1.51
2017-01-18T09:23:02.991Z,1.55
2017-01-18T09:25:17.464Z,1.65
2017-01-18T09:27:30.214Z,1.71
2017-01-18T09:29:44.956Z,1.75
2017-01-18T09:32:03.699Z,1.75
2017-01-18T09:34:16.640Z,1.89
2017-01-18T09:36:30.706Z,1.92
2017-01-18T09:38:43.427Z,1.87
2017-01-18T09:40:54.820Z,1.9
2017-01-18T09:43:11.081Z,1.96
2017-01-18T09:45:24.860Z,1.99
2017-01-18T09:47:37.658Z,2.03
2017-01-18T09:49:52.432Z,2.05
2017-01-18T09:52:07.147Z,2.1
2017-01-18T09:54:20.422Z,2.04
2017-01-18T09:56:34.735Z,2.13
2017-01-18T09:58:47.704Z,2.13
2017-01-18T10:01:02.697Z,2.22
2017-01-18T10:03:15.732Z,2.21
2017-01-18T10:05:24.303Z,2.3
2017-01-18T10:07:37.505Z,2.31
2017-01-18T10:09:51.825Z,2.3
2017-01-18T10:12:04.086Z,2.31
2017-01-18T10:14:17.038Z,2.33
2017-01-18T10:16:24.528Z,2.43
2017-01-18T10:18:27.102Z,2.53
2017-01-18T10:22:50.114Z,2.74
2017-01-18T10:25:00.775Z,2.66
2017-01-18T10:27:12.987Z,2.69
2017-01-18T10:29:25.456Z,2.67
2017-01-18T10:31:37.905Z,2.63
2017-01-18T10:33:50.268Z,2.61
2017-01-18T10:35:57.909Z,2.68
2017-01-18T10:38:10.932Z,2.65
2017-01-18T10:40:23.458Z,2.75
2017-01-18T10:42:35.860Z,2.74
2017-01-18T10:44:43.067Z,2.92
2017-01-18T10:46:50.482Z,2.98
2017-01-18T10:48:57.853Z,3.02
2017-01-18T10:51:10.373Z,3.02
2017-01-18T10:53:17.724Z,3.16
2017-01-18T10:55:24.999Z,3.24
2017-01-18T10:57:37.255Z,3.38
2017-01-18T10:59:44.611Z,3.47
2017-01-18T11:01:57.018Z,3.45
2017-01-18T11:04:09.451Z,3.5
2017-01-18T11:06:21.699Z,3.47
2017-01-18T11:08:34.295Z,3.47
2017-01-18T11:10:46.684Z,3.48
2017-01-18T11:12:59.590Z,3.41
2017-01-18T11:15:12.066Z,3.25
2017-01-18T11:17:24.469Z,3.17
2017-01-18T11:19:37.038Z,3.1
2017-01-18T11:21:49.347Z,3.15
2017-01-18T11:24:01.651Z,3.14
2017-01-18T11:26:13.882Z,3.12
2017-01-18T11:28:26.163Z,2.99
2017-01-18T11:30:38.480Z,2.95
2017-01-18T11:32:50.860Z,2.91
2017-01-18T11:35:03.152Z,2.84
2017-01-18T11:37:15.371Z,2.9
2017-01-18T11:39:27.790Z,3.11
2017-01-18T11:41:40.287Z,3.06
2017-01-18T11:43:52.654Z,3.18
2017-01-18T11:46:05.026Z,3.09
2017-01-18T11:48:18.156Z,3.09
2017-01-18T11:50:30.756Z,3.17
2017-01-18T11:52:43.255Z,3.28
2017-01-18T11:54:50.528Z,3.33
2017-01-18T11:56:57.842Z,3.37
2017-01-18T11:59:10.165Z,3.28
2017-01-18T12:01:22.501Z,3.29
2017-01-18T12:03:41.046Z,3.28
2017-01-18T12:05:53.231Z,3.24
2017-01-18T12:08:05.655Z,3.25
2017-01-18T12:10:18.024Z,3.2
2017-01-18T12:12:30.235Z,3.25
2017-01-18T12:14:42.525Z,3.11
2017-01-18T12:16:55.055Z,2.98
2017-01-18T12:19:07.651Z,2.93
2017-01-18T12:21:20.064Z,2.93
2017-01-18T12:23:34.072Z,2.95
2017-01-18T12:25:48.567Z,2.87
2017-01-18T12:28:04.420Z,2.87
2017-01-18T12:30:16.743Z,2.95
2017-01-18T12:32:27.341Z,2.82
2017-01-18T12:34:40.688Z,2.81
2017-01-18T12:36:55.796Z,2.74
2017-01-18T12:39:11.508Z,2.68
2017-01-18T12:41:25.765Z,2.55
2017-01-18T12:43:39.256Z,2.56
2017-01-18T12:45:55.778Z,2.57
2017-01-18T12:48:11.186Z,2.52
2017-01-18T12:50:24.693Z,2.42
2017-01-18T12:52:39.797Z,2.28
2017-01-18T12:54:54.868Z,2.22
2017-01-18T12:57:14.864Z,2.18
2017-01-18T12:59:29.410Z,2.24
2017-01-18T13:01:47.467Z,2.28
2017-01-18T13:04:04.898Z,2.31
2017-01-18T13:06:16.247Z,2.43
2017-01-18T13:08:31.562Z,2.46
2017-01-18T13:10:47.055Z,2.5
2017-01-18T13:13:03.917Z,2.5
2017-01-18T13:15:17.047Z,2.45
2017-01-18T13:17:30.564Z,2.37
2017-01-18T13:19:40.001Z,2.35
2017-01-18T13:21:50.751Z,2.31
2017-01-18T13:24:03.858Z,2.3
2017-01-18T13:26:17.055Z,2.25
2017-01-18T13:28:34.345Z,2.13
2017-01-18T13:30:50.663Z,2.01
2017-01-18T13:33:06.722Z,2.02
2017-01-18T13:35:15.114Z,2.04
2017-01-18T13:37:32.936Z,2.05
2017-01-18T13:39:50.617Z,2.14
2017-01-18T13:42:06.459Z,2.29
2017-01-18T13:44:20.532Z,2.28
2017-01-18T13:46:35.450Z,2.27
2017-01-18T13:48:51.200Z,2.22
2017-01-18T13:51:06.827Z,2.16
2017-01-18T13:53:21.871Z,2.14
2017-01-18T13:55:31.371Z,2.04
2017-01-18T13:57:47.359Z,1.93
2017-01-18T14:00:01.678Z,1.8
2017-01-18T14:02:14.826Z,1.72
2017-01-18T14:06:45.971Z,1.58
2017-01-18T14:09:01.484Z,1.56
2017-01-18T14:11:18.399Z,1.58
2017-01-18T14:13:31.113Z,1.73
2017-01-18T14:15:44.911Z,1.69
2017-01-18T14:17:58.089Z,1.62
2017-01-18T14:20:15.127Z,1.52
2017-01-18T14:22:28.986Z,1.44
2017-01-18T14:24:45.267Z,1.36
2017-01-18T14:27:02.593Z,1.26
2017-01-18T14:29:19.719Z,1.15
2017-01-18T14:31:33.980Z,1.1
2017-01-18T14:33:50.547Z,1.03
2017-01-18T14:36:05.386Z,0.94
2017-01-18T14:38:21.075Z,0.81
2017-01-18T14:40:37.759Z,0.76
2017-01-18T14:42:55.074Z,0.72
2017-01-18T14:45:13.069Z,0.65
2017-01-18T14:47:26.747Z,0.59
2017-01-18T14:49:39.260Z,0.52
2017-01-18T14:51:52.045Z,0.46
2017-01-18T14:54:04.581Z,0.42
2017-01-18T14:56:16.944Z,0.4
2017-01-18T14:58:29.354Z,0.37
2017-01-18T15:00:41.588Z,0.35
2017-01-18T15:02:54.131Z,0.29
2017-01-18T15:05:08.207Z,0.19
2017-01-18T15:07:24.510Z,0.13
2017-01-18T15:09:40.783Z,0.06
2017-01-18T15:11:56.641Z,0.04
2017-01-18T15:14:07.559Z,0.02
2017-01-18T15:16:24.514Z,-0.01
2017-01-18T15:18:40.254Z,-0.05
2017-01-18T15:20:53.667Z,-0.08
2017-01-18T15:23:11.705Z,-0.11
2017-01-18T15:25:26.769Z,-0.18
2017-01-18T15:27:44.041Z,-0.22
2017-01-18T15:30:00.428Z,-0.27
2017-01-18T15:32:15.605Z,-0.3
2017-01-18T15:34:32.055Z,-0.34
2017-01-18T15:36:48.354Z,-0.37
2017-01-18T15:39:04.340Z,-0.41
2017-01-18T15:41:17.372Z,-0.42
2017-01-18T15:43:29.701Z,-0.43
2017-01-18T15:45:37.929Z,-0.43
2017-01-18T15:47:50.341Z,-0.46
2017-01-18T15:50:03.899Z,-0.48
2017-01-18T15:52:11.317Z,-0.52
2017-01-18T15:54:23.790Z,-0.57
2017-01-18T15:56:37.348Z,-0.59
2017-01-18T15:58:49.952Z,-0.61
2017-01-18T16:01:02.398Z,-0.63
2017-01-18T16:03:15.250Z,-0.65
2017-01-18T16:05:27.588Z,-0.66
2017-01-18T16:07:39.975Z,-0.67
2017-01-18T16:09:55.351Z,-0.68
2017-01-18T16:12:07.648Z,-0.7
2017-01-18T16:14:15.216Z,-0.71
2017-01-18T16:16:27.571Z,-0.72
2017-01-18T16:18:40.394Z,-0.71
2017-01-18T16:20:53.307Z,-0.73
2017-01-18T16:23:05.528Z,-0.75
2017-01-18T16:25:18.973Z,-0.77
2017-01-18T16:27:35.419Z,-0.78
2017-01-18T16:29:50.809Z,-0.81
2017-01-18T16:32:04.431Z,-0.84
2017-01-18T16:34:20.688Z,-0.87
2017-01-18T16:36:30.524Z,-0.93
2017-01-18T16:38:45.490Z,-0.97
2017-01-18T16:41:00.807Z,-1.01
2017-01-18T16:43:14.938Z,-1.04
2017-01-18T16:45:29.877Z,-1.06
2017-01-18T16:47:43.217Z,-1.08
2017-01-18T16:49:56.932Z,-1.09
2017-01-18T16:52:10.736Z,-1.1
2017-01-18T16:54:20.452Z,-1.12
2017-01-18T16:56:33.976Z,-1.11
2017-01-18T16:58:48.309Z,-1.1
2017-01-18T17:01:02.765Z,-1.1
2017-01-18T17:03:11.800Z,-1.09
2017-01-18T17:05:23.999Z,-1.08
2017-01-18T17:07:34.007Z,-1.08
2017-01-18T17:09:48.331Z,-1.09
2017-01-18T17:12:01.755Z,-1.1
2017-01-18T17:14:10.567Z,-1.11
2017-01-18T17:16:22.875Z,-1.13
2017-01-18T17:18:38.754Z,-1.15
2017-01-18T17:20:51.137Z,-1.16
2017-01-18T17:23:06.422Z,-1.19
2017-01-18T17:25:20.781Z,-1.2
2017-01-18T17:27:36.749Z,-1.2
2017-01-18T17:29:52.114Z,-1.21
2017-01-18T17:32:04.981Z,-1.23
2017-01-18T17:34:20.907Z,-1.25
2017-01-18T17:36:35.424Z,-1.24
2017-01-18T17:38:47.823Z,-1.26
2017-01-18T17:41:00.142Z,-1.28
2017-01-18T17:43:12.370Z,-1.31
2017-01-18T17:45:25.167Z,-1.34
2017-01-18T17:47:38.063Z,-1.36
2017-01-18T17:49:46.638Z,-1.39
2017-01-18T17:51:54.216Z,-1.43
2017-01-18T17:54:01.687Z,-1.46
2017-01-18T17:56:14.228Z,-1.47
2017-01-18T17:58:30.301Z,-1.47
2017-01-18T18:00:48.702Z,-1.49
2017-01-18T18:03:04.051Z,-1.5
2017-01-18T18:05:19.018Z,-1.52
2017-01-18T18:07:29.209Z,-1.55
2017-01-18T18:09:44.597Z,-1.58
2017-01-18T18:11:59.145Z,-1.59
2017-01-18T18:14:14.508Z,-1.62
2017-01-18T18:16:27.307Z,-1.61
2017-01-18T18:18:34.764Z,-1.6
2017-01-18T18:20:47.293Z,-1.6
2017-01-18T18:22:59.518Z,-1.61
2017-01-18T18:25:06.933Z,-1.62
2017-01-18T18:27:19.977Z,-1.64
2017-01-18T18:29:32.881Z,-1.65
2017-01-18T18:31:46.336Z,-1.66
2017-01-18T18:33:58.646Z,-1.68
2017-01-18T18:36:11.424Z,-1.69
2017-01-18T18:38:23.766Z,-1.68
2017-01-18T18:40:31.378Z,-1.68
2017-01-18T18:42:43.757Z,-1.69
2017-01-18T18:44:56.008Z,-1.69
2017-01-18T18:47:08.497Z,-1.71
2017-01-18T18:49:20.804Z,-1.73
2017-01-18T18:51:31.433Z,-1.75
2017-01-18T18:53:44.150Z,-1.75
2017-01-18T18:55:56.881Z,-1.74
2017-01-18T18:58:09.293Z,-1.72
2017-01-18T19:00:24.559Z,-1.71
2017-01-18T19:02:37.050Z,-1.71
2017-01-18T19:04:51.610Z,-1.69
2017-01-18T19:07:04.081Z,-1.69
2017-01-18T19:09:17.820Z,-1.68
2017-01-18T19:11:29.522Z,-1.68
2017-01-18T19:13:41.931Z,-1.67
2017-01-18T19:15:54.327Z,-1.66
2017-01-18T19:18:06.656Z,-1.66
2017-01-18T19:20:19.791Z,-1.63
2017-01-18T19:22:32.201Z,-1.64
2017-01-18T19:24:45.170Z,-1.64
2017-01-18T19:26:57.638Z,-1.62
2017-01-18T19:29:10.314Z,-1.62
2017-01-18T19:31:23.352Z,-1.62
2017-01-18T19:33:35.949Z,-1.6
2017-01-18T19:35:48.346Z,-1.61
2017-01-18T19:38:00.747Z,-1.61
2017-01-18T19:40:13.549Z,-1.61
2017-01-18T19:42:26.491Z,-1.62
2017-01-18T19:44:38.798Z,-1.64
2017-01-18T19:46:51.371Z,-1.67
2017-01-18T19:49:05.530Z,-1.7
2017-01-18T19:51:12.826Z,-1.74
2017-01-18T19:53:25.554Z,-1.78
2017-01-18T19:55:38.126Z,-1.82
2017-01-18T19:57:50.486Z,-1.84
2017-01-18T20:00:02.855Z,-1.86
2017-01-18T20:02:15.320Z,-1.88
2017-01-18T20:04:22.821Z,-1.9
2017-01-18T20:06:30.081Z,-1.91
2017-01-18T20:08:42.351Z,-1.92
2017-01-18T20:10:56.170Z,-1.91
2017-01-18T20:13:08.516Z,-1.9
2017-01-18T20:15:21.145Z,-1.9
2017-01-18T20:17:33.498Z,-1.9
2017-01-18T20:19:46.038Z,-1.91
2017-01-18T20:21:58.704Z,-1.93
2017-01-18T20:24:10.990Z,-1.95
2017-01-18T20:26:18.483Z,-1.96
2017-01-18T20:28:30.749Z,-1.98
2017-01-18T20:30:43.039Z,-2.01
2017-01-18T20:32:55.419Z,-2.04
2017-01-18T20:35:10.378Z,-2.06
2017-01-18T20:37:23.682Z,-2.06
2017-01-18T20:39:37.630Z,-2.04
2017-01-18T20:41:50.998Z,-2.05
2017-01-18T20:43:58.922Z,-2.05
2017-01-18T20:46:11.778Z,-2.05
2017-01-18T20:48:24.317Z,-2.04
2017-01-18T20:50:37.280Z,-2.03
2017-01-18T20:52:49.738Z,-2.02
2017-01-18T20:55:03.961Z,-2.02
2017-01-18T20:57:17.441Z,-2.02
2017-01-18T20:59:25.676Z,-2.02
2017-01-18T21:01:41.051Z,-2.03
2017-01-18T21:03:49.620Z,-2.05
2017-01-18T21:05:57.847Z,-2.07
2017-01-18T21:08:11.556Z,-2.09
2017-01-18T21:10:22.867Z,-2.09
2017-01-18T21:12:39.023Z,-2.11
2017-01-18T21:15:08.756Z,-2.13
2017-01-18T21:17:21.368Z,-2.11
2017-01-18T21:19:34.295Z,-2.09
2017-01-18T21:21:46.893Z,-2.07
2017-01-18T21:23:59.150Z,-2.05
2017-01-18T21:26:19.351Z,-2.06
2017-01-18T21:28:32.040Z,-2.08
2017-01-18T21:30:44.548Z,-2.09
2017-01-18T21:32:56.992Z,-2.09
2017-01-18T21:35:09.214Z,-2.08
2017-01-18T21:37:21.734Z,-2.08
2017-01-18T21:39:34.233Z,-2.08
2017-01-18T21:41:46.827Z,-2.08
2017-01-18T21:43:59.280Z,-2.09
2017-01-18T21:46:11.685Z,-2.09
2017-01-18T21:48:19.205Z,-2.11
2017-01-18T21:50:31.478Z,-2.12
2017-01-18T21:52:48.274Z,-2.12
2017-01-18T21:55:00.587Z,-2.14
2017-01-18T21:57:24.072Z,-2.14
2017-01-18T21:59:37.891Z,-2.15
2017-01-18T22:01:50.353Z,-2.14
2017-01-18T22:04:02.646Z,-2.15
2017-01-18T22:06:14.916Z,-2.14
2017-01-18T22:08:27.338Z,-2.14
2017-01-18T22:10:39.810Z,-2.14
2017-01-18T22:12:52.246Z,-2.13
2017-01-18T22:14:59.574Z,-2.11
2017-01-18T22:17:12.074Z,-2.1
2017-01-18T22:19:25.943Z,-2.09
2017-01-18T22:21:33.375Z,-2.1
2017-01-18T22:23:46.071Z,-2.09
2017-01-18T22:25:58.262Z,-2.09
2017-01-18T22:28:10.649Z,-2.09
2017-01-18T22:30:23.372Z,-2.09
2017-01-18T22:32:35.916Z,-2.1
2017-01-18T22:34:48.268Z,-2.13
2017-01-18T22:37:00.508Z,-2.14
2017-01-18T22:39:07.770Z,-2.15
2017-01-18T22:41:19.973Z,-2.16
2017-01-18T22:43:32.274Z,-2.16
2017-01-18T22:45:44.637Z,-2.14
2017-01-18T22:47:56.931Z,-2.13
2017-01-18T22:50:09.115Z,-2.11
2017-01-18T22:52:21.577Z,-2.1
2017-01-18T22:54:33.939Z,-2.11
2017-01-18T22:56:46.369Z,-2.12
2017-01-18T22:58:54.726Z,-2.13
2017-01-18T23:01:06.076Z,-2.12
2017-01-18T23:03:13.526Z,-2.14
2017-01-18T23:05:26.140Z,-2.15
2017-01-18T23:07:38.750Z,-2.16
2017-01-18T23:09:46.117Z,-2.14
2017-01-18T23:11:58.537Z,-2.13
2017-01-18T23:14:10.795Z,-2.12
2017-01-18T23:16:23.172Z,-2.13
2017-01-18T23:18:35.547Z,-2.14
2017-01-18T23:20:47.773Z,-2.14
2017-01-18T23:22:55.111Z,-2.14
2017-01-18T23:25:02.491Z,-2.15
2017-01-18T23:27:14.999Z,-2.16
2017-01-18T23:29:27.447Z,-2.17
2017-01-18T23:31:39.912Z,-2.19
2017-01-18T23:33:52.328Z,-2.2
2017-01-18T23:36:04.582Z,-2.21
2017-01-18T23:38:19.181Z,-2.2
2017-01-18T23:40:32.526Z,-2.2
2017-01-18T23:42:46.792Z,-2.22
2017-01-18T23:44:59.003Z,-2.23
2017-01-18T23:47:12.154Z,-2.24
2017-01-18T23:49:26.003Z,-2.27
2017-01-18T23:51:42.139Z,-2.27
2017-01-18T23:53:57.346Z,-2.26
2017-01-18T23:56:12.193Z,-2.26
2017-01-18T23:58:28.709Z,-2.26
